ESTT weather

Public forecast

Using degrees Celsius for public forecast. Weather courtesy of forecast.io.

Closest aviation weather report (METAR) to Vellinge Airfield

Closest report is Malmö Sturup Airport, 14.9 nm (27.5 km) NE. Retrieved 2020/08/10 15:20 UTC (19 minutes ago):

ESMS 101520Z 10012KT CAVOK 24/17 Q1021

Closest aviation forecast (TAF) to Vellinge Airfield

Closest forecast is Malmö Sturup Airport, 14.9 nm (27.5 km) NE. Retrieved 2020/08/10 12:00 UTC (4 hours ago):

TAF ESMS 101114Z 1012/1112 10008KT CAVOK TEMPO 1012/1018 TSRA SCT060CB